Time;durP1;ratioP1;P1;durP2;ratioP2;P2;SDS_P1;SDS_P2;PMS_P1;PMS_P2;Temp;Humidity;BMP_temperature;BMP_pressure;BME280_temperature;BME280_humidity;BME280_pressure;Samples;Min_cycle;Max_cycle;Signal;HPM_P1;HPM_P2
2021/03/18 02:30:01;;;;;;;7.87;5.40;;;;;;;3.26;60.44;99550.82;1750960;78;21230;-87
2021/03/18 02:33:33;;;;;;;13.87;7.50;;;;;;;3.23;60.14;99547.68;1782629;78;24438;-89
2021/03/18 02:36:10;;;;;;;13.57;6.00;;;;;;;3.14;60.04;99549.45;1674228;83;21465;-88
2021/03/18 02:38:53;;;;;;;13.45;5.92;;;;;;;3.10;59.70;99552.89;1661129;84;21235;-87
2021/03/18 02:41:28;;;;;;;13.63;5.97;;;;;;;3.09;59.50;99554.39;1653714;83;21276;-89
2021/03/18 02:44:07;;;;;;;10.10;6.03;;;;;;;3.03;59.79;99555.00;1658749;84;21237;-88
2021/03/18 02:46:45;;;;;;;14.70;5.83;;;;;;;3.02;59.78;99562.59;1660729;84;21235;-88
2021/03/18 02:49:15;;;;;;;13.47;6.27;;;;;;;2.38;59.79;99464.27;1680215;84;21224;-88
2021/03/18 02:51:46;;;;;;;15.60;5.57;;;;;;;3.04;59.58;99568.52;1664301;84;21367;-88
2021/03/18 02:54:36;;;;;;;16.32;7.90;;;;;;;3.05;59.61;99563.56;1769934;77;28374;-88
2021/03/18 02:57:08;;;;;;;8.53;5.17;;;;;;;3.24;59.07;99573.02;1714496;82;21170;-88
2021/03/18 02:59:39;;;;;;;5.93;4.80;;;;;;;3.41;58.68;99577.84;1709310;82;21196;-90
2021/03/18 03:02:21;;;;;;;10.43;5.07;;;;;;;3.40;58.62;99576.20;1658789;85;21065;-87
2021/03/18 03:04:57;;;;;;;15.20;5.30;;;;;;;3.33;58.71;99576.01;1605520;86;21190;-89
2021/03/18 03:07:30;;;;;;;10.23;4.50;;;;;;;3.27;58.78;99585.38;1667557;85;21200;-89
2021/03/18 03:10:00;;;;;;;12.07;4.63;;;;;;;3.24;59.04;99575.17;1656900;85;21392;-89
2021/03/18 03:12:32;;;;;;;12.27;5.57;;;;;;;3.24;58.95;99578.28;1640181;85;22009;-89
2021/03/18 03:15:01;;;;;;;15.27;6.17;;;;;;;3.21;59.07;99580.75;1601956;87;21326;-90
2021/03/18 03:17:31;;;;;;;16.33;5.37;;;;;;;3.15;58.95;99576.63;1625326;87;22150;-87
2021/03/18 03:20:06;;;;;;;18.23;4.93;;;;;;;3.14;59.05;99579.73;1594311;88;21344;-88
2021/03/18 03:22:36;;;;;;;17.17;5.70;;;;;;;3.12;59.00;99583.02;1599693;88;21226;-87
2021/03/18 03:25:10;;;;;;;9.33;5.80;;;;;;;3.11;59.02;99580.06;1614900;87;21188;-87
2021/03/18 03:27:45;;;;;;;13.57;5.60;;;;;;;3.10;59.18;99584.98;1599404;87;21200;-88
2021/03/18 03:30:16;;;;;;;10.40;6.47;;;;;;;3.10;59.26;99587.13;1609744;87;21185;-86
2021/03/18 05:40:04;;;;;;;13.83;9.13;;;;;;;3.37;69.07;99672.20;1805271;77;21212;-88
2021/03/18 05:42:44;;;;;;;11.97;9.73;;;;;;;3.35;69.01;99669.38;1792142;78;21322;-90
2021/03/18 05:45:28;;;;;;;12.63;9.47;;;;;;;3.39;69.33;99666.28;1805246;77;22884;-87
2021/03/18 05:48:02;;;;;;;14.83;9.17;;;;;;;3.51;69.00;99674.22;1658745;83;21377;-89
2021/03/18 07:26:22;;;;;;;26.60;12.67;;;;;;;4.23;66.40;99665.81;1640117;84;21229;-87
2021/03/18 07:28:56;;;;;;;19.73;10.77;;;;;;;4.50;66.13;99711.34;1626741;87;21186;-88
2021/03/18 07:31:28;;;;;;;19.73;11.20;;;;;;;4.48;66.37;99706.25;1638760;87;21663;-87
2021/03/18 07:33:58;;;;;;;16.93;10.17;;;;;;;4.61;66.15;99707.05;1631352;86;21085;-86
2021/03/18 07:36:25;;;;;;;16.93;10.40;;;;;;;4.79;65.54;99709.54;1602578;88;21193;-87
2021/03/18 07:38:52;;;;;;;20.60;11.43;;;;;;;4.82;65.21;99709.69;1614224;86;21159;-85
2021/03/18 07:41:22;;;;;;;22.80;11.20;;;;;;;4.78;65.14;99709.20;1610335;88;21212;-88
2021/03/18 07:43:54;;;;;;;18.83;10.90;;;;;;;4.77;65.34;99711.52;1608786;88;21177;-89
2021/03/18 07:46:42;;;;;;;19.20;9.97;;;;;;;4.85;64.97;99715.97;1599564;88;21712;-89
2021/03/18 07:49:21;;;;;;;16.20;10.07;;;;;;;4.84;64.86;99713.83;1604745;87;21231;-88
2021/03/18 08:05:52;;;;;;;;;;;;;;;;;;;;;
2021/03/18 09:47:05;;;;;;;6.63;4.33;;;;;;;6.15;55.18;99719.70;1786019;77;21184;-89
2021/03/18 09:49:42;;;;;;;10.10;4.77;;;;;;;5.66;54.57;99639.58;1787687;78;21491;-85
2021/03/18 09:52:32;;;;;;;;;;;;;;;;;;;;;
2021/03/18 09:55:07;;;;;;;13.67;5.60;;;;;;;6.20;54.05;99713.39;1849208;74;22632;-86
2021/03/18 09:57:37;;;;;;;6.30;4.30;;;;;;;6.19;54.13;99723.64;1770028;79;21315;-88
2021/03/18 10:00:08;;;;;;;5.83;3.90;;;;;;;6.21;53.96;99722.95;1824376;76;21149;-85
2021/03/18 10:02:42;;;;;;;13.40;4.03;;;;;;;6.20;54.46;99726.63;1779285;79;21396;-86
2021/03/18 10:05:09;;;;;;;9.10;4.20;;;;;;;6.13;54.49;99727.80;1758656;79;21180;-86
2021/03/18 10:07:40;;;;;;;4.70;4.30;;;;;;;6.01;54.62;99736.64;1710002;81;21449;-85
2021/03/18 10:10:11;;;;;;;7.50;3.10;;;;;;;5.95;54.20;99725.44;1701514;83;21738;-86
2021/03/18 10:12:40;;;;;;;6.57;2.80;;;;;;;5.93;52.73;99735.31;1682724;83;21096;-85
2021/03/18 10:15:10;;;;;;;5.33;3.20;;;;;;;4.65;53.09;99542.56;1687194;84;21192;-87
2021/03/18 10:17:42;;;;;;;9.87;3.83;;;;;;;5.81;53.35;99730.91;1702812;83;21188;-86
2021/03/18 10:20:22;;;;;;;6.63;3.67;;;;;;;5.80;53.33;99742.50;1700034;83;21180;-85
2021/03/18 10:25:44;;;;;;;9.33;3.30;;;;;;;5.82;52.70;99729.92;1832083;75;23280;-86
2021/03/18 10:28:15;;;;;;;5.27;2.97;;;;;;;5.75;52.87;99736.08;1796868;78;21155;-85
2021/03/18 10:30:46;;;;;;;6.13;2.47;;;;;;;5.68;52.45;99735.11;1795468;78;21190;-86
2021/03/18 10:33:22;;;;;;;5.77;1.97;;;;;;;5.24;52.44;99669.83;1769826;79;21195;-87
2021/03/18 10:35:58;;;;;;;3.10;2.73;;;;;;;5.65;51.99;99736.25;1739698;81;21194;-86
2021/03/18 10:38:36;;;;;;;4.33;2.20;;;;;;;5.66;52.29;99735.27;1776579;79;21305;-85
2021/03/18 10:41:14;;;;;;;5.40;2.40;;;;;;;5.64;51.86;99743.37;1771153;79;21125;-85
2021/03/18 10:43:47;;;;;;;12.03;2.70;;;;;;;5.64;51.44;99743.37;1741428;81;21341;-85
2021/03/18 10:46:29;;;;;;;2.33;1.20;;;;;;;5.61;51.33;99738.44;1781027;79;21194;-85
2021/03/18 10:48:59;;;;;;;6.07;2.37;;;;;;;5.63;51.14;99739.57;1772274;79;21196;-86
2021/03/18 10:51:29;;;;;;;5.57;2.83;;;;;;;5.60;51.31;99751.32;1769364;79;21342;-86
2021/03/18 10:53:57;;;;;;;6.63;2.20;;;;;;;5.62;51.42;99749.83;1769919;79;21532;-83
2021/03/18 10:56:29;;;;;;;3.40;2.03;;;;;;;5.66;51.07;99745.84;1733299;79;21120;-84
2021/03/18 10:59:15;;;;;;;9.23;3.60;;;;;;;5.70;51.13;99747.15;1769841;79;21231;-84
2021/03/18 11:01:46;;;;;;;6.17;1.98;;;;;;;5.73;51.03;99741.53;1738303;79;21522;-85
2021/03/18 11:04:18;;;;;;;9.67;3.63;;;;;;;5.73;50.32;99745.50;1768797;79;21175;-86
2021/03/18 11:06:49;;;;;;;13.87;3.43;;;;;;;5.68;50.48;99750.47;1769523;79;21218;-86
2021/03/18 11:09:36;;;;;;;6.57;3.27;;;;;;;5.62;50.62;99749.33;1770437;79;21313;-91
2021/03/18 11:12:25;;;;;;;6.83;3.87;;;;;;;4.48;50.30;99574.30;1768915;79;21080;-86
2021/03/18 11:25:57;;;;;;;14.27;7.80;;;;;;;5.44;54.81;99735.50;1752447;79;22470;-84
2021/03/18 11:28:28;;;;;;;11.57;8.10;;;;;;;5.04;56.07;99684.41;1739187;82;21175;-85
2021/03/18 11:31:30;;;;;;;9.23;8.07;;;;;;;5.38;57.57;99732.22;1808811;79;22509;-84
2021/03/18 11:34:14;;;;;;;11.73;7.73;;;;;;;5.34;58.35;99738.84;1725369;80;21106;-84
2021/03/18 11:36:42;;;;;;;19.37;10.33;;;;;;;5.43;59.15;99743.13;1658391;85;21327;-84
2021/03/18 11:39:13;;;;;;;16.03;8.93;;;;;;;5.54;59.30;99734.83;1663505;84;21589;-86
2021/03/18 11:41:40;;;;;;;11.37;7.97;;;;;;;5.64;59.33;99735.44;1673274;84;21139;-84
2021/03/18 11:44:08;;;;;;;13.27;8.97;;;;;;;5.75;59.29;99744.01;1665502;84;21164;-85
2021/03/18 11:46:37;;;;;;;10.60;9.43;;;;;;;5.81;59.33;99732.73;1661618;85;21304;-85
2021/03/18 11:49:07;;;;;;;8.63;7.70;;;;;;;5.90;59.16;99724.28;1675347;84;21343;-86
2021/03/18 11:51:35;;;;;;;9.63;8.47;;;;;;;5.97;58.91;99735.34;1675071;84;21199;-83
2021/03/18 11:54:04;;;;;;;9.00;7.20;;;;;;;6.04;58.32;99735.45;1655226;85;21250;-85
2021/03/18 11:56:33;;;;;;;8.67;6.13;;;;;;;6.13;58.07;99738.39;1665228;84;21128;-85
2021/03/18 11:59:00;;;;;;;9.27;7.73;;;;;;;6.17;57.85;99741.52;1662237;84;21139;-86
2021/03/18 12:01:27;;;;;;;9.00;8.10;;;;;;;6.18;57.77;99732.59;1660208;84;21067;-85
2021/03/18 12:03:55;;;;;;;8.20;7.23;;;;;;;6.15;58.10;99738.22;1638459;85;21779;-83
2021/03/18 12:06:24;;;;;;;9.07;7.27;;;;;;;6.15;58.36;99732.42;1642171;85;21204;-84
2021/03/18 12:08:54;;;;;;;8.93;6.60;;;;;;;6.18;57.47;99728.62;1634067;86;21219;-85
2021/03/18 12:11:21;;;;;;;8.30;5.93;;;;;;;6.19;56.71;99740.33;1627993;86;21356;-85
2021/03/18 12:13:56;;;;;;;9.60;7.77;;;;;;;6.19;56.73;99735.55;1629072;87;21219;-84
2021/03/18 12:16:23;;;;;;;6.97;6.03;;;;;;;6.19;57.09;99734.22;1626101;86;21239;-84
2021/03/18 12:18:53;;;;;;;10.13;6.33;;;;;;;6.15;57.00;99740.86;1623433;86;21267;-85
